sensor_id;sensor_type;location;lat;lon;timestamp;P1;durP1;ratioP1;P2;durP2;ratioP2
21432;SDS011;18592;49.708;10.900;2023-03-01T00:01:42;17.00;;;10.60;;
21432;SDS011;18592;49.708;10.900;2023-03-01T00:03:44;16.60;;;10.83;;
21432;SDS011;18592;49.708;10.900;2023-03-01T00:05:49;14.80;;;10.50;;
21432;SDS011;18592;49.708;10.900;2023-03-01T00:07:54;17.33;;;11.17;;
21432;SDS011;18592;49.708;10.900;2023-03-01T00:09:58;15.33;;;10.50;;
21432;SDS011;18592;49.708;10.900;2023-03-01T00:11:59;14.67;;;10.63;;
21432;SDS011;18592;49.708;10.900;2023-03-01T00:14:02;13.50;;;9.87;;
21432;SDS011;18592;49.708;10.900;2023-03-01T00:16:07;13.10;;;10.20;;
21432;SDS011;18592;49.708;10.900;2023-03-01T00:18:10;15.20;;;10.10;;
21432;SDS011;18592;49.708;10.900;2023-03-01T00:20:11;17.13;;;11.47;;
21432;SDS011;18592;49.708;10.900;2023-03-01T00:22:13;15.20;;;10.43;;
21432;SDS011;18592;49.708;10.900;2023-03-01T00:24:15;16.40;;;12.30;;
21432;SDS011;18592;49.708;10.900;2023-03-01T00:26:17;15.87;;;10.93;;
21432;SDS011;18592;49.708;10.900;2023-03-01T00:28:20;16.87;;;10.80;;
21432;SDS011;18592;49.708;10.900;2023-03-01T00:30:22;17.77;;;12.17;;
21432;SDS011;18592;49.708;10.900;2023-03-01T00:32:24;19.10;;;11.10;;
21432;SDS011;18592;49.708;10.900;2023-03-01T00:34:25;17.27;;;11.20;;
21432;SDS011;18592;49.708;10.900;2023-03-01T00:36:30;16.33;;;11.47;;
21432;SDS011;18592;49.708;10.900;2023-03-01T00:38:35;15.03;;;10.50;;
21432;SDS011;18592;49.708;10.900;2023-03-01T00:40:40;17.07;;;11.20;;
21432;SDS011;18592;49.708;10.900;2023-03-01T00:42:49;16.83;;;11.03;;
21432;SDS011;18592;49.708;10.900;2023-03-01T00:44:51;15.00;;;10.30;;
21432;SDS011;18592;49.708;10.900;2023-03-01T00:46:53;16.00;;;10.53;;
21432;SDS011;18592;49.708;10.900;2023-03-01T00:48:55;16.37;;;10.87;;
21432;SDS011;18592;49.708;10.900;2023-03-01T00:51:04;14.67;;;10.20;;
21432;SDS011;18592;49.708;10.900;2023-03-01T00:53:16;16.10;;;10.67;;
21432;SDS011;18592;49.708;10.900;2023-03-01T00:55:18;17.60;;;10.17;;
21432;SDS011;18592;49.708;10.900;2023-03-01T00:57:20;15.17;;;10.00;;
21432;SDS011;18592;49.708;10.900;2023-03-01T00:59:21;16.23;;;10.90;;
21432;SDS011;18592;49.708;10.900;2023-03-01T01:01:26;15.53;;;11.07;;
21432;SDS011;18592;49.708;10.900;2023-03-01T01:03:33;14.77;;;10.40;;
21432;SDS011;18592;49.708;10.900;2023-03-01T01:05:34;16.07;;;10.80;;
21432;SDS011;18592;49.708;10.900;2023-03-01T01:07:36;15.00;;;10.07;;
21432;SDS011;18592;49.708;10.900;2023-03-01T01:09:38;13.43;;;9.40;;
21432;SDS011;18592;49.708;10.900;2023-03-01T01:11:40;14.37;;;10.07;;
21432;SDS011;18592;49.708;10.900;2023-03-01T01:13:43;11.83;;;9.13;;
21432;SDS011;18592;49.708;10.900;2023-03-01T01:15:46;16.27;;;10.00;;
21432;SDS011;18592;49.708;10.900;2023-03-01T01:17:48;14.60;;;10.50;;
21432;SDS011;18592;49.708;10.900;2023-03-01T01:19:49;13.03;;;9.13;;
21432;SDS011;18592;49.708;10.900;2023-03-01T01:21:51;13.37;;;9.70;;
21432;SDS011;18592;49.708;10.900;2023-03-01T01:23:53;13.03;;;9.90;;
21432;SDS011;18592;49.708;10.900;2023-03-01T01:25:55;11.50;;;9.20;;
21432;SDS011;18592;49.708;10.900;2023-03-01T01:27:57;15.43;;;10.00;;
21432;SDS011;18592;49.708;10.900;2023-03-01T01:29:59;13.07;;;9.03;;
21432;SDS011;18592;49.708;10.900;2023-03-01T01:32:05;14.90;;;10.03;;
21432;SDS011;18592;49.708;10.900;2023-03-01T01:34:09;13.13;;;9.73;;
21432;SDS011;18592;49.708;10.900;2023-03-01T01:36:15;14.03;;;9.70;;
21432;SDS011;18592;49.708;10.900;2023-03-01T01:38:17;13.33;;;9.70;;
21432;SDS011;18592;49.708;10.900;2023-03-01T01:40:19;15.03;;;10.97;;
21432;SDS011;18592;49.708;10.900;2023-03-01T01:42:20;15.40;;;10.13;;
21432;SDS011;18592;49.708;10.900;2023-03-01T01:44:26;14.50;;;9.90;;
21432;SDS011;18592;49.708;10.900;2023-03-01T01:46:30;14.83;;;10.73;;
21432;SDS011;18592;49.708;10.900;2023-03-01T01:48:38;14.73;;;9.50;;
21432;SDS011;18592;49.708;10.900;2023-03-01T01:50:43;15.07;;;10.20;;
21432;SDS011;18592;49.708;10.900;2023-03-01T01:52:46;13.80;;;9.50;;
21432;SDS011;18592;49.708;10.900;2023-03-01T01:57:14;14.07;;;9.87;;
21432;SDS011;18592;49.708;10.900;2023-03-01T01:59:20;13.53;;;10.03;;
21432;SDS011;18592;49.708;10.900;2023-03-01T02:01:25;15.37;;;10.53;;
21432;SDS011;18592;49.708;10.900;2023-03-01T02:03:28;13.10;;;9.93;;
21432;SDS011;18592;49.708;10.900;2023-03-01T02:05:36;14.83;;;10.23;;
21432;SDS011;18592;49.708;10.900;2023-03-01T02:07:44;14.77;;;9.87;;
21432;SDS011;18592;49.708;10.900;2023-03-01T02:09:48;14.80;;;9.30;;
21432;SDS011;18592;49.708;10.900;2023-03-01T02:11:54;12.83;;;9.47;;
21432;SDS011;18592;49.708;10.900;2023-03-01T02:13:59;16.33;;;9.90;;
21432;SDS011;18592;49.708;10.900;2023-03-01T02:16:05;12.77;;;9.57;;
21432;SDS011;18592;49.708;10.900;2023-03-01T02:18:11;13.67;;;10.03;;
21432;SDS011;18592;49.708;10.900;2023-03-01T02:20:27;14.40;;;9.97;;
21432;SDS011;18592;49.708;10.900;2023-03-01T02:22:39;16.03;;;10.73;;
21432;SDS011;18592;49.708;10.900;2023-03-01T02:26:56;15.13;;;10.10;;
21432;SDS011;18592;49.708;10.900;2023-03-01T02:29:07;15.30;;;10.17;;
21432;SDS011;18592;49.708;10.900;2023-03-01T02:31:10;15.30;;;10.77;;
21432;SDS011;18592;49.708;10.900;2023-03-01T02:33:37;13.17;;;9.60;;
21432;SDS011;18592;49.708;10.900;2023-03-01T02:35:40;14.40;;;9.87;;
21432;SDS011;18592;49.708;10.900;2023-03-01T02:37:43;14.37;;;10.33;;
21432;SDS011;18592;49.708;10.900;2023-03-01T02:39:46;18.23;;;10.50;;
21432;SDS011;18592;49.708;10.900;2023-03-01T02:41:51;15.13;;;10.47;;
21432;SDS011;18592;49.708;10.900;2023-03-01T02:43:55;15.53;;;10.43;;
21432;SDS011;18592;49.708;10.900;2023-03-01T02:45:57;16.17;;;10.33;;
21432;SDS011;18592;49.708;10.900;2023-03-01T02:48:03;14.47;;;9.90;;
21432;SDS011;18592;49.708;10.900;2023-03-01T02:50:12;15.37;;;10.90;;
21432;SDS011;18592;49.708;10.900;2023-03-01T02:54:47;15.10;;;9.73;;
21432;SDS011;18592;49.708;10.900;2023-03-01T02:56:56;12.73;;;10.20;;
21432;SDS011;18592;49.708;10.900;2023-03-01T02:58:59;14.63;;;9.60;;
21432;SDS011;18592;49.708;10.900;2023-03-01T03:01:03;15.33;;;10.27;;
21432;SDS011;18592;49.708;10.900;2023-03-01T03:03:05;17.23;;;10.83;;
21432;SDS011;18592;49.708;10.900;2023-03-01T03:05:12;13.47;;;10.20;;
21432;SDS011;18592;49.708;10.900;2023-03-01T03:07:19;16.93;;;10.63;;
21432;SDS011;18592;49.708;10.900;2023-03-01T03:09:23;17.10;;;10.83;;
21432;SDS011;18592;49.708;10.900;2023-03-01T03:11:25;16.13;;;11.13;;
21432;SDS011;18592;49.708;10.900;2023-03-01T03:13:28;17.63;;;11.50;;
21432;SDS011;18592;49.708;10.900;2023-03-01T03:15:31;16.00;;;10.43;;
21432;SDS011;18592;49.708;10.900;2023-03-01T03:17:39;17.93;;;11.03;;
21432;SDS011;18592;49.708;10.900;2023-03-01T03:19:45;17.60;;;11.10;;
21432;SDS011;18592;49.708;10.900;2023-03-01T03:21:47;17.20;;;10.63;;
21432;SDS011;18592;49.708;10.900;2023-03-01T03:23:48;18.07;;;11.13;;
21432;SDS011;18592;49.708;10.900;2023-03-01T03:25:50;16.47;;;11.03;;
21432;SDS011;18592;49.708;10.900;2023-03-01T03:27:58;17.23;;;10.90;;
21432;SDS011;18592;49.708;10.900;2023-03-01T03:29:59;17.03;;;11.13;;
21432;SDS011;18592;49.708;10.900;2023-03-01T03:32:01;15.40;;;10.57;;
21432;SDS011;18592;49.708;10.900;2023-03-01T03:34:04;15.77;;;10.43;;
21432;SDS011;18592;49.708;10.900;2023-03-01T03:36:06;15.60;;;10.13;;
21432;SDS011;18592;49.708;10.900;2023-03-01T03:38:09;15.87;;;10.43;;
21432;SDS011;18592;49.708;10.900;2023-03-01T03:40:18;16.13;;;10.17;;
21432;SDS011;18592;49.708;10.900;2023-03-01T03:42:22;13.50;;;9.43;;
21432;SDS011;18592;49.708;10.900;2023-03-01T03:44:26;15.13;;;10.13;;
21432;SDS011;18592;49.708;10.900;2023-03-01T03:46:27;14.47;;;9.47;;
21432;SDS011;18592;49.708;10.900;2023-03-01T03:48:29;13.77;;;9.13;;
21432;SDS011;18592;49.708;10.900;2023-03-01T03:50:31;14.93;;;10.10;;
21432;SDS011;18592;49.708;10.900;2023-03-01T03:52:33;14.03;;;9.60;;
21432;SDS011;18592;49.708;10.900;2023-03-01T03:54:35;14.17;;;9.77;;
21432;SDS011;18592;49.708;10.900;2023-03-01T03:56:36;13.97;;;10.00;;
21432;SDS011;18592;49.708;10.900;2023-03-01T03:58:42;15.77;;;9.33;;
21432;SDS011;18592;49.708;10.900;2023-03-01T04:00:44;12.53;;;9.40;;
21432;SDS011;18592;49.708;10.900;2023-03-01T04:02:47;13.63;;;9.47;;
21432;SDS011;18592;49.708;10.900;2023-03-01T04:04:49;13.70;;;9.83;;
21432;SDS011;18592;49.708;10.900;2023-03-01T04:06:51;14.40;;;10.13;;
21432;SDS011;18592;49.708;10.900;2023-03-01T04:08:52;13.93;;;9.43;;
21432;SDS011;18592;49.708;10.900;2023-03-01T04:11:00;13.47;;;9.83;;
21432;SDS011;18592;49.708;10.900;2023-03-01T04:13:23;17.07;;;10.30;;
21432;SDS011;18592;49.708;10.900;2023-03-01T04:15:26;13.43;;;9.37;;
21432;SDS011;18592;49.708;10.900;2023-03-01T04:17:28;14.00;;;9.37;;
21432;SDS011;18592;49.708;10.900;2023-03-01T04:19:33;14.80;;;10.17;;
21432;SDS011;18592;49.708;10.900;2023-03-01T04:21:39;13.50;;;10.13;;
21432;SDS011;18592;49.708;10.900;2023-03-01T04:23:41;14.37;;;9.83;;
21432;SDS011;18592;49.708;10.900;2023-03-01T04:25:53;15.77;;;10.57;;
21432;SDS011;18592;49.708;10.900;2023-03-01T04:27:56;18.40;;;10.50;;
21432;SDS011;18592;49.708;10.900;2023-03-01T04:29:58;15.37;;;10.43;;
21432;SDS011;18592;49.708;10.900;2023-03-01T04:32:00;16.57;;;10.50;;
21432;SDS011;18592;49.708;10.900;2023-03-01T04:34:01;15.87;;;10.80;;
21432;SDS011;18592;49.708;10.900;2023-03-01T04:36:03;14.57;;;10.13;;
21432;SDS011;18592;49.708;10.900;2023-03-01T04:38:07;15.27;;;10.23;;
21432;SDS011;18592;49.708;10.900;2023-03-01T04:40:09;15.30;;;10.30;;
21432;SDS011;18592;49.708;10.900;2023-03-01T04:42:17;17.30;;;10.30;;
21432;SDS011;18592;49.708;10.900;2023-03-01T04:44:20;15.07;;;10.03;;
21432;SDS011;18592;49.708;10.900;2023-03-01T04:46:21;15.53;;;10.60;;
21432;SDS011;18592;49.708;10.900;2023-03-01T04:48:24;15.53;;;10.07;;
21432;SDS011;18592;49.708;10.900;2023-03-01T04:50:25;17.07;;;10.87;;
21432;SDS011;18592;49.708;10.900;2023-03-01T04:52:27;18.20;;;10.93;;
21432;SDS011;18592;49.708;10.900;2023-03-01T04:54:29;16.00;;;10.37;;
21432;SDS011;18592;49.708;10.900;2023-03-01T04:56:32;16.33;;;10.53;;
21432;SDS011;18592;49.708;10.900;2023-03-01T04:58:34;17.87;;;11.07;;
21432;SDS011;18592;49.708;10.900;2023-03-01T05:00:35;16.97;;;10.80;;
21432;SDS011;18592;49.708;10.900;2023-03-01T05:02:37;16.40;;;10.37;;
21432;SDS011;18592;49.708;10.900;2023-03-01T05:04:39;18.83;;;10.63;;
21432;SDS011;18592;49.708;10.900;2023-03-01T05:06:43;14.77;;;10.53;;
21432;SDS011;18592;49.708;10.900;2023-03-01T05:08:45;18.43;;;11.07;;
21432;SDS011;18592;49.708;10.900;2023-03-01T05:10:51;19.47;;;10.67;;
21432;SDS011;18592;49.708;10.900;2023-03-01T05:12:53;19.50;;;11.27;;
21432;SDS011;18592;49.708;10.900;2023-03-01T05:14:55;16.40;;;10.87;;
21432;SDS011;18592;49.708;10.900;2023-03-01T05:16:56;17.17;;;11.23;;
21432;SDS011;18592;49.708;10.900;2023-03-01T05:19:05;15.50;;;10.47;;
21432;SDS011;18592;49.708;10.900;2023-03-01T05:21:13;18.67;;;11.37;;
21432;SDS011;18592;49.708;10.900;2023-03-01T05:23:19;17.33;;;10.97;;
21432;SDS011;18592;49.708;10.900;2023-03-01T05:25:21;16.60;;;10.83;;
21432;SDS011;18592;49.708;10.900;2023-03-01T05:27:23;17.70;;;11.63;;
21432;SDS011;18592;49.708;10.900;2023-03-01T05:29:25;20.53;;;12.90;;
21432;SDS011;18592;49.708;10.900;2023-03-01T05:31:28;21.67;;;14.03;;
21432;SDS011;18592;49.708;10.900;2023-03-01T05:33:32;24.20;;;15.53;;
21432;SDS011;18592;49.708;10.900;2023-03-01T05:35:33;28.20;;;17.23;;
21432;SDS011;18592;49.708;10.900;2023-03-01T05:37:39;30.97;;;18.73;;
21432;SDS011;18592;49.708;10.900;2023-03-01T05:39:49;30.53;;;19.00;;
21432;SDS011;18592;49.708;10.900;2023-03-01T05:41:52;37.03;;;20.77;;
21432;SDS011;18592;49.708;10.900;2023-03-01T05:43:57;34.87;;;20.60;;
21432;SDS011;18592;49.708;10.900;2023-03-01T05:45:59;34.67;;;20.03;;
21432;SDS011;18592;49.708;10.900;2023-03-01T05:48:01;34.57;;;20.57;;
21432;SDS011;18592;49.708;10.900;2023-03-01T05:50:03;31.33;;;19.13;;
21432;SDS011;18592;49.708;10.900;2023-03-01T05:52:05;31.00;;;18.50;;
21432;SDS011;18592;49.708;10.900;2023-03-01T05:54:07;30.53;;;17.87;;
21432;SDS011;18592;49.708;10.900;2023-03-01T05:56:09;26.60;;;17.10;;
21432;SDS011;18592;49.708;10.900;2023-03-01T05:58:12;28.23;;;16.37;;
21432;SDS011;18592;49.708;10.900;2023-03-01T06:00:17;25.00;;;15.70;;
21432;SDS011;18592;49.708;10.900;2023-03-01T06:02:24;24.20;;;15.67;;
21432;SDS011;18592;49.708;10.900;2023-03-01T06:04:25;24.00;;;15.57;;
21432;SDS011;18592;49.708;10.900;2023-03-01T06:06:27;21.83;;;14.60;;
21432;SDS011;18592;49.708;10.900;2023-03-01T06:08:32;21.90;;;14.03;;
21432;SDS011;18592;49.708;10.900;2023-03-01T06:10:33;21.47;;;13.33;;
21432;SDS011;18592;49.708;10.900;2023-03-01T06:12:36;19.77;;;13.40;;
21432;SDS011;18592;49.708;10.900;2023-03-01T06:14:38;21.00;;;13.47;;
21432;SDS011;18592;49.708;10.900;2023-03-01T06:16:40;21.77;;;13.87;;
21432;SDS011;18592;49.708;10.900;2023-03-01T06:18:42;21.70;;;13.47;;
21432;SDS011;18592;49.708;10.900;2023-03-01T06:20:44;19.37;;;12.97;;
21432;SDS011;18592;49.708;10.900;2023-03-01T06:22:45;20.73;;;13.53;;
21432;SDS011;18592;49.708;10.900;2023-03-01T06:24:48;18.53;;;11.93;;
21432;SDS011;18592;49.708;10.900;2023-03-01T06:26:52;19.97;;;12.77;;
21432;SDS011;18592;49.708;10.900;2023-03-01T06:28:54;20.57;;;12.77;;
21432;SDS011;18592;49.708;10.900;2023-03-01T06:30:55;18.83;;;12.87;;
21432;SDS011;18592;49.708;10.900;2023-03-01T06:32:57;21.23;;;13.30;;
21432;SDS011;18592;49.708;10.900;2023-03-01T06:35:03;20.57;;;13.23;;
21432;SDS011;18592;49.708;10.900;2023-03-01T06:37:06;17.50;;;12.30;;
21432;SDS011;18592;49.708;10.900;2023-03-01T06:39:08;21.17;;;13.80;;
21432;SDS011;18592;49.708;10.900;2023-03-01T06:41:10;20.20;;;13.37;;
21432;SDS011;18592;49.708;10.900;2023-03-01T06:43:11;21.73;;;13.87;;
21432;SDS011;18592;49.708;10.900;2023-03-01T06:45:14;21.10;;;14.50;;
21432;SDS011;18592;49.708;10.900;2023-03-01T06:47:16;22.63;;;15.40;;
21432;SDS011;18592;49.708;10.900;2023-03-01T06:49:17;28.60;;;17.27;;
21432;SDS011;18592;49.708;10.900;2023-03-01T06:51:19;31.97;;;18.13;;
21432;SDS011;18592;49.708;10.900;2023-03-01T06:53:20;28.77;;;18.00;;
21432;SDS011;18592;49.708;10.900;2023-03-01T06:55:22;31.13;;;18.03;;
21432;SDS011;18592;49.708;10.900;2023-03-01T06:57:24;30.93;;;17.73;;
21432;SDS011;18592;49.708;10.900;2023-03-01T06:59:26;31.30;;;18.87;;
21432;SDS011;18592;49.708;10.900;2023-03-01T07:01:28;26.00;;;16.73;;
21432;SDS011;18592;49.708;10.900;2023-03-01T07:03:30;29.93;;;17.93;;
21432;SDS011;18592;49.708;10.900;2023-03-01T07:05:35;26.87;;;16.43;;
21432;SDS011;18592;49.708;10.900;2023-03-01T07:07:36;25.60;;;17.03;;
21432;SDS011;18592;49.708;10.900;2023-03-01T07:09:38;29.00;;;16.67;;
21432;SDS011;18592;49.708;10.900;2023-03-01T07:11:40;24.40;;;16.53;;
21432;SDS011;18592;49.708;10.900;2023-03-01T07:13:41;29.70;;;15.83;;
21432;SDS011;18592;49.708;10.900;2023-03-01T07:15:43;23.87;;;14.27;;
21432;SDS011;18592;49.708;10.900;2023-03-01T07:17:45;20.83;;;13.57;;
21432;SDS011;18592;49.708;10.900;2023-03-01T07:19:48;21.23;;;13.10;;
21432;SDS011;18592;49.708;10.900;2023-03-01T07:21:50;20.10;;;12.67;;
21432;SDS011;18592;49.708;10.900;2023-03-01T07:23:51;20.67;;;13.13;;
21432;SDS011;18592;49.708;10.900;2023-03-01T07:25:54;20.73;;;12.87;;
21432;SDS011;18592;49.708;10.900;2023-03-01T07:27:56;19.43;;;12.90;;
21432;SDS011;18592;49.708;10.900;2023-03-01T07:29:57;20.67;;;13.53;;
21432;SDS011;18592;49.708;10.900;2023-03-01T07:31:59;22.17;;;13.47;;
21432;SDS011;18592;49.708;10.900;2023-03-01T07:34:01;20.53;;;13.30;;
21432;SDS011;18592;49.708;10.900;2023-03-01T07:36:03;21.30;;;13.43;;
21432;SDS011;18592;49.708;10.900;2023-03-01T07:38:05;19.97;;;13.17;;
21432;SDS011;18592;49.708;10.900;2023-03-01T07:40:07;20.43;;;13.47;;
21432;SDS011;18592;49.708;10.900;2023-03-01T07:42:09;21.07;;;13.97;;
21432;SDS011;18592;49.708;10.900;2023-03-01T07:44:14;18.90;;;12.90;;
21432;SDS011;18592;49.708;10.900;2023-03-01T07:46:16;17.13;;;12.20;;
21432;SDS011;18592;49.708;10.900;2023-03-01T07:48:20;17.37;;;12.33;;
21432;SDS011;18592;49.708;10.900;2023-03-01T07:50:22;18.10;;;13.27;;
21432;SDS011;18592;49.708;10.900;2023-03-01T07:52:23;18.83;;;12.23;;
21432;SDS011;18592;49.708;10.900;2023-03-01T07:54:25;16.83;;;11.73;;
21432;SDS011;18592;49.708;10.900;2023-03-01T07:56:27;20.37;;;12.70;;
21432;SDS011;18592;49.708;10.900;2023-03-01T07:58:29;18.00;;;11.77;;
21432;SDS011;18592;49.708;10.900;2023-03-01T08:00:31;18.93;;;12.63;;
21432;SDS011;18592;49.708;10.900;2023-03-01T08:02:33;19.00;;;13.03;;
21432;SDS011;18592;49.708;10.900;2023-03-01T08:04:34;16.00;;;11.70;;
21432;SDS011;18592;49.708;10.900;2023-03-01T08:06:36;17.33;;;11.43;;
21432;SDS011;18592;49.708;10.900;2023-03-01T08:08:41;14.57;;;11.10;;
21432;SDS011;18592;49.708;10.900;2023-03-01T08:10:43;16.47;;;11.77;;
21432;SDS011;18592;49.708;10.900;2023-03-01T08:12:45;15.83;;;11.60;;
21432;SDS011;18592;49.708;10.900;2023-03-01T08:14:46;15.00;;;10.50;;
21432;SDS011;18592;49.708;10.900;2023-03-01T08:16:48;15.80;;;10.82;;
21432;SDS011;18592;49.708;10.900;2023-03-01T08:18:51;16.30;;;11.68;;
21432;SDS011;18592;49.708;10.900;2023-03-01T08:20:52;14.48;;;10.02;;
21432;SDS011;18592;49.708;10.900;2023-03-01T08:22:55;13.63;;;10.00;;
21432;SDS011;18592;49.708;10.900;2023-03-01T08:24:58;16.23;;;11.23;;
21432;SDS011;18592;49.708;10.900;2023-03-01T08:27:00;17.25;;;11.52;;
21432;SDS011;18592;49.708;10.900;2023-03-01T08:29:04;15.40;;;11.00;;
21432;SDS011;18592;49.708;10.900;2023-03-01T08:31:16;15.43;;;10.60;;
21432;SDS011;18592;49.708;10.900;2023-03-01T08:33:26;15.55;;;10.50;;
21432;SDS011;18592;49.708;10.900;2023-03-01T08:35:27;14.30;;;9.98;;
21432;SDS011;18592;49.708;10.900;2023-03-01T08:37:29;15.27;;;10.77;;
21432;SDS011;18592;49.708;10.900;2023-03-01T08:39:32;13.23;;;10.52;;
21432;SDS011;18592;49.708;10.900;2023-03-01T08:41:33;16.50;;;10.93;;
21432;SDS011;18592;49.708;10.900;2023-03-01T08:43:35;14.73;;;10.25;;
21432;SDS011;18592;49.708;10.900;2023-03-01T08:45:37;14.15;;;10.82;;
21432;SDS011;18592;49.708;10.900;2023-03-01T08:47:41;13.77;;;9.67;;
21432;SDS011;18592;49.708;10.900;2023-03-01T08:49:43;15.35;;;9.98;;
21432;SDS011;18592;49.708;10.900;2023-03-01T08:51:45;11.93;;;9.75;;
21432;SDS011;18592;49.708;10.900;2023-03-01T08:53:48;13.52;;;10.18;;
21432;SDS011;18592;49.708;10.900;2023-03-01T08:55:50;13.63;;;9.60;;
21432;SDS011;18592;49.708;10.900;2023-03-01T08:57:52;13.77;;;9.88;;
21432;SDS011;18592;49.708;10.900;2023-03-01T08:59:53;14.13;;;10.38;;
21432;SDS011;18592;49.708;10.900;2023-03-01T09:01:57;13.43;;;9.85;;
21432;SDS011;18592;49.708;10.900;2023-03-01T09:03:59;14.80;;;10.55;;
21432;SDS011;18592;49.708;10.900;2023-03-01T09:06:04;15.90;;;11.10;;
21432;SDS011;18592;49.708;10.900;2023-03-01T09:08:06;17.08;;;11.10;;
21432;SDS011;18592;49.708;10.900;2023-03-01T09:10:09;17.92;;;12.25;;
21432;SDS011;18592;49.708;10.900;2023-03-01T09:12:11;17.25;;;11.65;;
21432;SDS011;18592;49.708;10.900;2023-03-01T09:14:13;15.68;;;11.48;;
21432;SDS011;18592;49.708;10.900;2023-03-01T09:16:19;15.05;;;11.10;;
21432;SDS011;18592;49.708;10.900;2023-03-01T09:18:23;16.15;;;11.52;;
21432;SDS011;18592;49.708;10.900;2023-03-01T09:20:24;13.40;;;10.13;;
21432;SDS011;18592;49.708;10.900;2023-03-01T09:22:26;14.80;;;10.25;;
21432;SDS011;18592;49.708;10.900;2023-03-01T09:24:30;15.60;;;11.27;;
21432;SDS011;18592;49.708;10.900;2023-03-01T09:26:32;16.60;;;11.40;;
21432;SDS011;18592;49.708;10.900;2023-03-01T09:28:34;16.23;;;11.68;;
21432;SDS011;18592;49.708;10.900;2023-03-01T09:30:37;18.17;;;11.50;;
21432;SDS011;18592;49.708;10.900;2023-03-01T09:32:39;16.20;;;10.90;;
21432;SDS011;18592;49.708;10.900;2023-03-01T09:34:46;15.48;;;11.32;;
21432;SDS011;18592;49.708;10.900;2023-03-01T09:37:05;15.10;;;10.65;;
21432;SDS011;18592;49.708;10.900;2023-03-01T09:39:07;15.18;;;11.20;;
21432;SDS011;18592;49.708;10.900;2023-03-01T09:45:46;16.05;;;11.70;;
21432;SDS011;18592;49.708;10.900;2023-03-01T09:47:51;14.30;;;11.23;;
21432;SDS011;18592;49.708;10.900;2023-03-01T09:50:16;15.02;;;11.05;;
21432;SDS011;18592;49.708;10.900;2023-03-01T09:54:38;17.00;;;11.95;;
21432;SDS011;18592;49.708;10.900;2023-03-01T09:56:46;14.38;;;10.88;;
21432;SDS011;18592;49.708;10.900;2023-03-01T10:01:29;13.60;;;10.77;;
21432;SDS011;18592;49.708;10.900;2023-03-01T10:03:53;13.77;;;10.65;;
21432;SDS011;18592;49.708;10.900;2023-03-01T10:06:10;14.07;;;10.80;;
21432;SDS011;18592;49.708;10.900;2023-03-01T10:08:56;14.38;;;10.65;;
21432;SDS011;18592;49.708;10.900;2023-03-01T10:10:58;15.32;;;10.32;;
21432;SDS011;18592;49.708;10.900;2023-03-01T10:13:10;15.23;;;10.98;;
21432;SDS011;18592;49.708;10.900;2023-03-01T10:15:19;13.70;;;10.23;;
21432;SDS011;18592;49.708;10.900;2023-03-01T10:17:34;13.15;;;9.77;;
21432;SDS011;18592;49.708;10.900;2023-03-01T10:19:43;13.43;;;10.68;;
21432;SDS011;18592;49.708;10.900;2023-03-01T10:21:49;14.32;;;10.02;;
21432;SDS011;18592;49.708;10.900;2023-03-01T10:23:52;12.50;;;9.40;;
21432;SDS011;18592;49.708;10.900;2023-03-01T10:30:52;11.77;;;9.63;;
21432;SDS011;18592;49.708;10.900;2023-03-01T10:32:54;12.23;;;9.73;;
21432;SDS011;18592;49.708;10.900;2023-03-01T10:34:57;13.50;;;9.77;;
21432;SDS011;18592;49.708;10.900;2023-03-01T10:37:16;14.20;;;9.77;;
21432;SDS011;18592;49.708;10.900;2023-03-01T10:39:22;12.02;;;8.85;;
21432;SDS011;18592;49.708;10.900;2023-03-01T10:41:26;10.98;;;9.63;;
21432;SDS011;18592;49.708;10.900;2023-03-01T10:43:40;12.32;;;9.23;;
21432;SDS011;18592;49.708;10.900;2023-03-01T10:45:48;11.55;;;9.13;;
21432;SDS011;18592;49.708;10.900;2023-03-01T10:48:03;11.93;;;8.57;;
21432;SDS011;18592;49.708;10.900;2023-03-01T10:50:18;11.23;;;9.38;;
21432;SDS011;18592;49.708;10.900;2023-03-01T10:52:23;11.70;;;8.93;;
21432;SDS011;18592;49.708;10.900;2023-03-01T10:54:29;10.48;;;7.88;;
21432;SDS011;18592;49.708;10.900;2023-03-01T10:56:45;11.30;;;8.50;;
21432;SDS011;18592;49.708;10.900;2023-03-01T10:59:03;9.00;;;7.43;;
21432;SDS011;18592;49.708;10.900;2023-03-01T11:03:24;11.90;;;8.80;;
21432;SDS011;18592;49.708;10.900;2023-03-01T11:05:29;11.45;;;8.35;;
21432;SDS011;18592;49.708;10.900;2023-03-01T11:07:45;10.45;;;8.30;;
21432;SDS011;18592;49.708;10.900;2023-03-01T11:09:56;12.43;;;9.18;;
21432;SDS011;18592;49.708;10.900;2023-03-01T11:11:57;11.48;;;8.80;;
21432;SDS011;18592;49.708;10.900;2023-03-01T11:14:06;11.43;;;8.57;;
21432;SDS011;18592;49.708;10.900;2023-03-01T11:16:34;11.05;;;8.52;;
21432;SDS011;18592;49.708;10.900;2023-03-01T11:18:38;10.93;;;8.32;;
21432;SDS011;18592;49.708;10.900;2023-03-01T11:20:48;11.93;;;8.43;;
21432;SDS011;18592;49.708;10.900;2023-03-01T11:23:01;10.00;;;8.07;;
21432;SDS011;18592;49.708;10.900;2023-03-01T11:25:10;10.30;;;8.43;;
21432;SDS011;18592;49.708;10.900;2023-03-01T11:27:16;12.07;;;8.93;;
21432;SDS011;18592;49.708;10.900;2023-03-01T11:29:26;11.10;;;7.75;;
21432;SDS011;18592;49.708;10.900;2023-03-01T11:31:40;9.82;;;7.85;;
21432;SDS011;18592;49.708;10.900;2023-03-01T11:33:59;10.70;;;7.75;;
21432;SDS011;18592;49.708;10.900;2023-03-01T11:38:25;11.50;;;8.77;;
21432;SDS011;18592;49.708;10.900;2023-03-01T11:40:37;10.23;;;7.88;;
21432;SDS011;18592;49.708;10.900;2023-03-01T11:42:50;10.68;;;8.18;;
21432;SDS011;18592;49.708;10.900;2023-03-01T11:45:02;9.48;;;8.20;;
21432;SDS011;18592;49.708;10.900;2023-03-01T11:47:14;11.85;;;8.20;;
21432;SDS011;18592;49.708;10.900;2023-03-01T11:49:56;10.55;;;8.57;;
21432;SDS011;18592;49.708;10.900;2023-03-01T11:56:43;12.02;;;8.15;;
21432;SDS011;18592;49.708;10.900;2023-03-01T11:59:03;11.68;;;8.52;;
21432;SDS011;18592;49.708;10.900;2023-03-01T12:01:28;11.35;;;8.32;;
21432;SDS011;18592;49.708;10.900;2023-03-01T12:08:42;10.10;;;7.88;;
21432;SDS011;18592;49.708;10.900;2023-03-01T12:13:43;10.75;;;8.13;;
21432;SDS011;18592;49.708;10.900;2023-03-01T12:18:11;10.20;;;8.73;;
21432;SDS011;18592;49.708;10.900;2023-03-01T12:23:15;9.68;;;7.03;;
21432;SDS011;18592;49.708;10.900;2023-03-01T12:25:53;11.70;;;8.40;;
21432;SDS011;18592;49.708;10.900;2023-03-01T12:32:40;10.68;;;8.20;;
21432;SDS011;18592;49.708;10.900;2023-03-01T12:35:30;10.23;;;8.20;;
21432;SDS011;18592;49.708;10.900;2023-03-01T12:40:00;9.50;;;7.82;;
21432;SDS011;18592;49.708;10.900;2023-03-01T12:47:15;9.60;;;8.32;;
21432;SDS011;18592;49.708;10.900;2023-03-01T12:49:39;10.85;;;8.93;;
21432;SDS011;18592;49.708;10.900;2023-03-01T12:52:09;12.00;;;8.40;;
21432;SDS011;18592;49.708;10.900;2023-03-01T12:54:20;11.27;;;9.18;;
21432;SDS011;18592;49.708;10.900;2023-03-01T12:56:29;11.20;;;8.25;;
21432;SDS011;18592;49.708;10.900;2023-03-01T12:58:46;11.68;;;8.15;;
21432;SDS011;18592;49.708;10.900;2023-03-01T13:04:26;9.98;;;7.97;;
21432;SDS011;18592;49.708;10.900;2023-03-01T13:06:22;11.98;;;8.75;;